sensor_id;sensor_type;location;lat;lon;timestamp;P1;durP1;ratioP1;P2;durP2;ratioP2
20462;SDS011;10390;53.566;9.980;2024-02-26T00:00:32;22.75;;;19.08;;
20462;SDS011;10390;53.566;9.980;2024-02-26T00:02:59;22.63;;;18.50;;
20462;SDS011;10390;53.566;9.980;2024-02-26T00:05:25;21.88;;;18.02;;
20462;SDS011;10390;53.566;9.980;2024-02-26T00:07:51;21.77;;;16.98;;
20462;SDS011;10390;53.566;9.980;2024-02-26T00:10:17;19.88;;;16.13;;
20462;SDS011;10390;53.566;9.980;2024-02-26T00:12:42;22.60;;;17.23;;
20462;SDS011;10390;53.566;9.980;2024-02-26T00:15:08;23.08;;;18.00;;
20462;SDS011;10390;53.566;9.980;2024-02-26T00:17:35;21.88;;;16.42;;
20462;SDS011;10390;53.566;9.980;2024-02-26T00:20:01;21.95;;;16.83;;
20462;SDS011;10390;53.566;9.980;2024-02-26T00:22:33;21.65;;;16.83;;
20462;SDS011;10390;53.566;9.980;2024-02-26T00:24:59;20.65;;;16.52;;
20462;SDS011;10390;53.566;9.980;2024-02-26T00:27:24;19.35;;;15.93;;
20462;SDS011;10390;53.566;9.980;2024-02-26T00:29:50;21.38;;;17.15;;
20462;SDS011;10390;53.566;9.980;2024-02-26T00:32:16;21.13;;;16.90;;
20462;SDS011;10390;53.566;9.980;2024-02-26T00:34:41;21.35;;;16.45;;
20462;SDS011;10390;53.566;9.980;2024-02-26T00:37:07;23.90;;;17.60;;
20462;SDS011;10390;53.566;9.980;2024-02-26T00:39:32;20.38;;;16.20;;
20462;SDS011;10390;53.566;9.980;2024-02-26T00:41:58;19.85;;;16.33;;
20462;SDS011;10390;53.566;9.980;2024-02-26T00:44:24;20.27;;;16.05;;
20462;SDS011;10390;53.566;9.980;2024-02-26T00:46:49;19.63;;;16.63;;
20462;SDS011;10390;53.566;9.980;2024-02-26T00:49:15;21.75;;;17.10;;
20462;SDS011;10390;53.566;9.980;2024-02-26T00:51:40;20.95;;;16.27;;
20462;SDS011;10390;53.566;9.980;2024-02-26T00:54:06;22.05;;;16.58;;
20462;SDS011;10390;53.566;9.980;2024-02-26T00:56:31;21.50;;;17.50;;
20462;SDS011;10390;53.566;9.980;2024-02-26T00:58:57;22.05;;;16.85;;
20462;SDS011;10390;53.566;9.980;2024-02-26T01:01:23;21.90;;;17.10;;
20462;SDS011;10390;53.566;9.980;2024-02-26T01:03:49;21.10;;;17.13;;
20462;SDS011;10390;53.566;9.980;2024-02-26T01:06:14;19.88;;;16.75;;
20462;SDS011;10390;53.566;9.980;2024-02-26T01:08:40;21.65;;;16.98;;
20462;SDS011;10390;53.566;9.980;2024-02-26T01:11:06;21.40;;;17.45;;
20462;SDS011;10390;53.566;9.980;2024-02-26T01:13:32;20.70;;;16.60;;
20462;SDS011;10390;53.566;9.980;2024-02-26T01:15:58;21.08;;;17.52;;
20462;SDS011;10390;53.566;9.980;2024-02-26T01:18:25;20.42;;;16.65;;
20462;SDS011;10390;53.566;9.980;2024-02-26T01:20:51;23.23;;;18.63;;
20462;SDS011;10390;53.566;9.980;2024-02-26T01:23:19;22.67;;;17.42;;
20462;SDS011;10390;53.566;9.980;2024-02-26T01:25:45;21.90;;;17.27;;
20462;SDS011;10390;53.566;9.980;2024-02-26T01:28:10;21.33;;;17.33;;
20462;SDS011;10390;53.566;9.980;2024-02-26T01:30:36;23.17;;;17.45;;
20462;SDS011;10390;53.566;9.980;2024-02-26T01:33:02;20.92;;;16.75;;
20462;SDS011;10390;53.566;9.980;2024-02-26T01:35:28;22.48;;;17.58;;
20462;SDS011;10390;53.566;9.980;2024-02-26T01:37:55;22.85;;;18.25;;
20462;SDS011;10390;53.566;9.980;2024-02-26T01:40:20;21.75;;;17.45;;
20462;SDS011;10390;53.566;9.980;2024-02-26T01:42:46;22.40;;;17.27;;
20462;SDS011;10390;53.566;9.980;2024-02-26T01:45:16;20.60;;;16.85;;
20462;SDS011;10390;53.566;9.980;2024-02-26T01:47:51;21.25;;;17.40;;
20462;SDS011;10390;53.566;9.980;2024-02-26T01:50:17;23.35;;;18.77;;
20462;SDS011;10390;53.566;9.980;2024-02-26T01:52:44;24.50;;;18.30;;
20462;SDS011;10390;53.566;9.980;2024-02-26T01:55:12;24.17;;;19.40;;
20462;SDS011;10390;53.566;9.980;2024-02-26T01:57:39;25.52;;;19.70;;
20462;SDS011;10390;53.566;9.980;2024-02-26T02:00:06;24.98;;;19.55;;
20462;SDS011;10390;53.566;9.980;2024-02-26T02:02:32;24.05;;;19.90;;
20462;SDS011;10390;53.566;9.980;2024-02-26T02:04:58;26.83;;;21.27;;
20462;SDS011;10390;53.566;9.980;2024-02-26T02:07:24;25.27;;;20.13;;
20462;SDS011;10390;53.566;9.980;2024-02-26T02:09:51;24.63;;;20.60;;
20462;SDS011;10390;53.566;9.980;2024-02-26T02:12:18;23.50;;;20.15;;
20462;SDS011;10390;53.566;9.980;2024-02-26T02:14:44;26.00;;;20.85;;
20462;SDS011;10390;53.566;9.980;2024-02-26T02:17:09;28.70;;;21.10;;
20462;SDS011;10390;53.566;9.980;2024-02-26T02:19:35;21.83;;;18.48;;
20462;SDS011;10390;53.566;9.980;2024-02-26T02:22:01;23.60;;;18.55;;
20462;SDS011;10390;53.566;9.980;2024-02-26T02:24:26;22.60;;;18.42;;
20462;SDS011;10390;53.566;9.980;2024-02-26T02:26:52;22.02;;;17.63;;
20462;SDS011;10390;53.566;9.980;2024-02-26T02:29:18;22.17;;;17.80;;
20462;SDS011;10390;53.566;9.980;2024-02-26T02:31:44;23.15;;;18.67;;
20462;SDS011;10390;53.566;9.980;2024-02-26T02:34:09;23.27;;;19.42;;
20462;SDS011;10390;53.566;9.980;2024-02-26T02:36:35;22.85;;;19.52;;
20462;SDS011;10390;53.566;9.980;2024-02-26T02:39:19;23.75;;;19.10;;
20462;SDS011;10390;53.566;9.980;2024-02-26T02:41:45;24.05;;;19.77;;
20462;SDS011;10390;53.566;9.980;2024-02-26T02:44:11;24.15;;;19.70;;
20462;SDS011;10390;53.566;9.980;2024-02-26T02:46:37;25.38;;;20.80;;
20462;SDS011;10390;53.566;9.980;2024-02-26T02:49:03;27.42;;;20.15;;
20462;SDS011;10390;53.566;9.980;2024-02-26T02:51:28;24.90;;;19.75;;
20462;SDS011;10390;53.566;9.980;2024-02-26T02:53:54;26.90;;;22.02;;
20462;SDS011;10390;53.566;9.980;2024-02-26T02:56:19;27.77;;;22.58;;
20462;SDS011;10390;53.566;9.980;2024-02-26T02:58:46;24.30;;;20.63;;
20462;SDS011;10390;53.566;9.980;2024-02-26T03:01:13;24.35;;;20.42;;
20462;SDS011;10390;53.566;9.980;2024-02-26T03:03:38;24.95;;;20.10;;
20462;SDS011;10390;53.566;9.980;2024-02-26T03:06:04;24.58;;;19.90;;
20462;SDS011;10390;53.566;9.980;2024-02-26T03:08:29;24.27;;;19.75;;
20462;SDS011;10390;53.566;9.980;2024-02-26T03:10:55;25.00;;;19.38;;
20462;SDS011;10390;53.566;9.980;2024-02-26T03:13:23;27.23;;;21.63;;
20462;SDS011;10390;53.566;9.980;2024-02-26T03:15:48;26.92;;;21.10;;
20462;SDS011;10390;53.566;9.980;2024-02-26T03:18:14;25.38;;;20.92;;
20462;SDS011;10390;53.566;9.980;2024-02-26T03:20:39;25.88;;;21.00;;
20462;SDS011;10390;53.566;9.980;2024-02-26T03:23:05;24.10;;;20.55;;
20462;SDS011;10390;53.566;9.980;2024-02-26T03:25:31;24.73;;;19.33;;
20462;SDS011;10390;53.566;9.980;2024-02-26T03:27:56;24.60;;;20.58;;
20462;SDS011;10390;53.566;9.980;2024-02-26T03:30:22;27.05;;;20.67;;
20462;SDS011;10390;53.566;9.980;2024-02-26T03:32:47;25.45;;;20.33;;
20462;SDS011;10390;53.566;9.980;2024-02-26T03:35:13;24.20;;;20.15;;
20462;SDS011;10390;53.566;9.980;2024-02-26T03:37:38;23.33;;;19.10;;
20462;SDS011;10390;53.566;9.980;2024-02-26T03:40:04;26.30;;;20.17;;
20462;SDS011;10390;53.566;9.980;2024-02-26T03:42:31;22.50;;;18.83;;
20462;SDS011;10390;53.566;9.980;2024-02-26T03:44:56;22.60;;;18.60;;
20462;SDS011;10390;53.566;9.980;2024-02-26T03:47:22;23.40;;;18.92;;
20462;SDS011;10390;53.566;9.980;2024-02-26T03:49:47;23.00;;;18.90;;
20462;SDS011;10390;53.566;9.980;2024-02-26T03:52:13;23.10;;;19.05;;
20462;SDS011;10390;53.566;9.980;2024-02-26T03:54:39;22.33;;;18.95;;
20462;SDS011;10390;53.566;9.980;2024-02-26T03:57:05;21.15;;;16.75;;
20462;SDS011;10390;53.566;9.980;2024-02-26T03:59:31;23.98;;;20.00;;
20462;SDS011;10390;53.566;9.980;2024-02-26T04:01:56;21.95;;;18.20;;
20462;SDS011;10390;53.566;9.980;2024-02-26T04:04:22;23.17;;;19.00;;
20462;SDS011;10390;53.566;9.980;2024-02-26T04:06:47;23.33;;;18.40;;
20462;SDS011;10390;53.566;9.980;2024-02-26T04:09:16;22.20;;;18.77;;
20462;SDS011;10390;53.566;9.980;2024-02-26T04:11:41;24.63;;;18.80;;
20462;SDS011;10390;53.566;9.980;2024-02-26T04:14:10;22.65;;;18.48;;
20462;SDS011;10390;53.566;9.980;2024-02-26T04:16:37;21.73;;;18.63;;
20462;SDS011;10390;53.566;9.980;2024-02-26T04:19:03;20.60;;;17.40;;
20462;SDS011;10390;53.566;9.980;2024-02-26T04:21:28;19.98;;;17.08;;
20462;SDS011;10390;53.566;9.980;2024-02-26T04:23:54;20.98;;;17.30;;
20462;SDS011;10390;53.566;9.980;2024-02-26T04:26:25;21.60;;;17.00;;
20462;SDS011;10390;53.566;9.980;2024-02-26T04:28:51;21.23;;;17.35;;
20462;SDS011;10390;53.566;9.980;2024-02-26T04:31:17;18.83;;;16.10;;
20462;SDS011;10390;53.566;9.980;2024-02-26T04:33:43;18.75;;;15.55;;
20462;SDS011;10390;53.566;9.980;2024-02-26T04:36:15;21.42;;;16.60;;
20462;SDS011;10390;53.566;9.980;2024-02-26T04:38:42;20.38;;;16.73;;
20462;SDS011;10390;53.566;9.980;2024-02-26T04:41:08;20.48;;;15.82;;
20462;SDS011;10390;53.566;9.980;2024-02-26T04:43:33;19.23;;;16.13;;
20462;SDS011;10390;53.566;9.980;2024-02-26T04:45:59;21.30;;;16.90;;
20462;SDS011;10390;53.566;9.980;2024-02-26T04:48:24;18.33;;;15.80;;
20462;SDS011;10390;53.566;9.980;2024-02-26T04:50:51;18.08;;;15.07;;
20462;SDS011;10390;53.566;9.980;2024-02-26T04:53:17;19.63;;;16.40;;
20462;SDS011;10390;53.566;9.980;2024-02-26T04:55:42;18.70;;;15.68;;
20462;SDS011;10390;53.566;9.980;2024-02-26T04:58:08;18.77;;;16.27;;
20462;SDS011;10390;53.566;9.980;2024-02-26T05:00:34;19.25;;;15.90;;
20462;SDS011;10390;53.566;9.980;2024-02-26T05:02:59;20.13;;;15.95;;
20462;SDS011;10390;53.566;9.980;2024-02-26T05:05:25;18.60;;;15.50;;
20462;SDS011;10390;53.566;9.980;2024-02-26T05:07:51;17.67;;;14.90;;
20462;SDS011;10390;53.566;9.980;2024-02-26T05:10:16;19.50;;;15.75;;
20462;SDS011;10390;53.566;9.980;2024-02-26T05:12:42;21.20;;;17.45;;
20462;SDS011;10390;53.566;9.980;2024-02-26T05:15:08;18.10;;;15.05;;
20462;SDS011;10390;53.566;9.980;2024-02-26T05:17:34;19.00;;;14.80;;
20462;SDS011;10390;53.566;9.980;2024-02-26T05:19:59;19.90;;;14.98;;
20462;SDS011;10390;53.566;9.980;2024-02-26T05:22:25;19.38;;;15.95;;
20462;SDS011;10390;53.566;9.980;2024-02-26T05:24:50;18.55;;;16.00;;
20462;SDS011;10390;53.566;9.980;2024-02-26T05:27:17;17.70;;;14.52;;
20462;SDS011;10390;53.566;9.980;2024-02-26T05:29:43;18.25;;;15.13;;
20462;SDS011;10390;53.566;9.980;2024-02-26T05:32:08;17.20;;;13.77;;
20462;SDS011;10390;53.566;9.980;2024-02-26T05:34:34;16.48;;;14.23;;
20462;SDS011;10390;53.566;9.980;2024-02-26T05:36:59;17.98;;;14.68;;
20462;SDS011;10390;53.566;9.980;2024-02-26T05:39:25;17.45;;;14.65;;
20462;SDS011;10390;53.566;9.980;2024-02-26T05:41:50;17.90;;;14.75;;
20462;SDS011;10390;53.566;9.980;2024-02-26T05:44:16;16.55;;;13.40;;
20462;SDS011;10390;53.566;9.980;2024-02-26T05:46:42;17.77;;;15.55;;
20462;SDS011;10390;53.566;9.980;2024-02-26T05:49:07;17.05;;;14.95;;
20462;SDS011;10390;53.566;9.980;2024-02-26T05:51:33;16.92;;;14.30;;
20462;SDS011;10390;53.566;9.980;2024-02-26T05:53:58;19.75;;;16.33;;
20462;SDS011;10390;53.566;9.980;2024-02-26T05:56:24;17.83;;;14.82;;
20462;SDS011;10390;53.566;9.980;2024-02-26T05:58:50;17.67;;;15.00;;
20462;SDS011;10390;53.566;9.980;2024-02-26T06:01:16;18.55;;;15.10;;
20462;SDS011;10390;53.566;9.980;2024-02-26T06:03:42;17.13;;;14.35;;
20462;SDS011;10390;53.566;9.980;2024-02-26T06:06:09;18.50;;;14.32;;
20462;SDS011;10390;53.566;9.980;2024-02-26T06:08:35;15.38;;;13.27;;
20462;SDS011;10390;53.566;9.980;2024-02-26T06:11:04;17.33;;;14.73;;
20462;SDS011;10390;53.566;9.980;2024-02-26T06:13:31;17.63;;;14.40;;
20462;SDS011;10390;53.566;9.980;2024-02-26T06:15:57;16.35;;;13.68;;
20462;SDS011;10390;53.566;9.980;2024-02-26T06:18:22;15.55;;;13.85;;
20462;SDS011;10390;53.566;9.980;2024-02-26T06:20:48;16.02;;;14.32;;
20462;SDS011;10390;53.566;9.980;2024-02-26T06:23:14;16.65;;;13.98;;
20462;SDS011;10390;53.566;9.980;2024-02-26T06:25:39;17.77;;;14.57;;
20462;SDS011;10390;53.566;9.980;2024-02-26T06:28:07;16.85;;;14.18;;
20462;SDS011;10390;53.566;9.980;2024-02-26T06:30:33;16.45;;;14.68;;
20462;SDS011;10390;53.566;9.980;2024-02-26T06:32:59;15.25;;;12.80;;
20462;SDS011;10390;53.566;9.980;2024-02-26T06:35:25;18.58;;;15.25;;
20462;SDS011;10390;53.566;9.980;2024-02-26T06:37:50;18.15;;;15.02;;
20462;SDS011;10390;53.566;9.980;2024-02-26T06:40:18;19.55;;;15.35;;
20462;SDS011;10390;53.566;9.980;2024-02-26T06:42:44;17.88;;;14.95;;
20462;SDS011;10390;53.566;9.980;2024-02-26T06:45:10;16.98;;;13.55;;
20462;SDS011;10390;53.566;9.980;2024-02-26T06:47:36;18.13;;;12.90;;
20462;SDS011;10390;53.566;9.980;2024-02-26T06:50:02;15.15;;;12.85;;
20462;SDS011;10390;53.566;9.980;2024-02-26T06:52:28;14.70;;;12.50;;
20462;SDS011;10390;53.566;9.980;2024-02-26T06:54:54;14.60;;;12.38;;
20462;SDS011;10390;53.566;9.980;2024-02-26T06:57:20;15.75;;;12.80;;
20462;SDS011;10390;53.566;9.980;2024-02-26T06:59:45;15.63;;;12.55;;
20462;SDS011;10390;53.566;9.980;2024-02-26T07:02:12;16.45;;;12.93;;
20462;SDS011;10390;53.566;9.980;2024-02-26T07:04:38;15.80;;;12.93;;
20462;SDS011;10390;53.566;9.980;2024-02-26T07:07:04;16.38;;;13.90;;
20462;SDS011;10390;53.566;9.980;2024-02-26T07:09:29;15.85;;;12.60;;
20462;SDS011;10390;53.566;9.980;2024-02-26T07:11:55;17.45;;;13.68;;
20462;SDS011;10390;53.566;9.980;2024-02-26T07:14:21;15.57;;;13.45;;
20462;SDS011;10390;53.566;9.980;2024-02-26T07:16:46;14.05;;;12.50;;
20462;SDS011;10390;53.566;9.980;2024-02-26T07:19:12;15.25;;;12.68;;
20462;SDS011;10390;53.566;9.980;2024-02-26T07:21:37;15.43;;;11.82;;
20462;SDS011;10390;53.566;9.980;2024-02-26T07:24:04;14.57;;;12.77;;
20462;SDS011;10390;53.566;9.980;2024-02-26T07:26:30;14.90;;;11.90;;
20462;SDS011;10390;53.566;9.980;2024-02-26T07:28:56;14.38;;;11.60;;
20462;SDS011;10390;53.566;9.980;2024-02-26T07:31:22;15.48;;;12.25;;
20462;SDS011;10390;53.566;9.980;2024-02-26T07:33:48;13.80;;;12.07;;
20462;SDS011;10390;53.566;9.980;2024-02-26T07:36:13;14.63;;;12.15;;
20462;SDS011;10390;53.566;9.980;2024-02-26T07:38:39;12.68;;;10.95;;
20462;SDS011;10390;53.566;9.980;2024-02-26T07:41:05;13.27;;;10.57;;
20462;SDS011;10390;53.566;9.980;2024-02-26T07:43:30;12.98;;;11.05;;
20462;SDS011;10390;53.566;9.980;2024-02-26T07:45:56;11.95;;;10.48;;
20462;SDS011;10390;53.566;9.980;2024-02-26T07:48:22;13.88;;;11.82;;
20462;SDS011;10390;53.566;9.980;2024-02-26T07:50:48;13.35;;;11.48;;
20462;SDS011;10390;53.566;9.980;2024-02-26T07:53:13;15.40;;;11.68;;
20462;SDS011;10390;53.566;9.980;2024-02-26T07:55:39;14.07;;;11.23;;
20462;SDS011;10390;53.566;9.980;2024-02-26T07:58:05;12.07;;;10.77;;
20462;SDS011;10390;53.566;9.980;2024-02-26T08:00:32;13.93;;;11.57;;
20462;SDS011;10390;53.566;9.980;2024-02-26T08:02:58;12.40;;;11.05;;
20462;SDS011;10390;53.566;9.980;2024-02-26T08:05:23;13.10;;;10.70;;
20462;SDS011;10390;53.566;9.980;2024-02-26T08:07:50;12.82;;;10.35;;
20462;SDS011;10390;53.566;9.980;2024-02-26T08:10:15;12.45;;;10.55;;
20462;SDS011;10390;53.566;9.980;2024-02-26T08:12:41;12.52;;;11.23;;
20462;SDS011;10390;53.566;9.980;2024-02-26T08:15:07;13.73;;;11.27;;
20462;SDS011;10390;53.566;9.980;2024-02-26T08:17:33;14.38;;;11.07;;
20462;SDS011;10390;53.566;9.980;2024-02-26T08:19:59;11.75;;;9.82;;
20462;SDS011;10390;53.566;9.980;2024-02-26T08:22:25;12.45;;;10.48;;
20462;SDS011;10390;53.566;9.980;2024-02-26T08:24:51;12.60;;;10.20;;
20462;SDS011;10390;53.566;9.980;2024-02-26T08:27:16;13.07;;;10.48;;
20462;SDS011;10390;53.566;9.980;2024-02-26T08:29:42;11.77;;;10.00;;
20462;SDS011;10390;53.566;9.980;2024-02-26T08:32:08;10.82;;;9.25;;
20462;SDS011;10390;53.566;9.980;2024-02-26T08:34:33;11.65;;;9.70;;
20462;SDS011;10390;53.566;9.980;2024-02-26T08:36:59;11.82;;;9.20;;
20462;SDS011;10390;53.566;9.980;2024-02-26T08:39:25;10.52;;;8.95;;
20462;SDS011;10390;53.566;9.980;2024-02-26T08:41:51;12.13;;;9.70;;
20462;SDS011;10390;53.566;9.980;2024-02-26T08:44:16;10.60;;;9.45;;
20462;SDS011;10390;53.566;9.980;2024-02-26T08:46:42;10.48;;;9.35;;
20462;SDS011;10390;53.566;9.980;2024-02-26T08:49:08;10.98;;;9.75;;
20462;SDS011;10390;53.566;9.980;2024-02-26T08:51:34;11.40;;;9.55;;
20462;SDS011;10390;53.566;9.980;2024-02-26T08:53:59;10.13;;;8.80;;
20462;SDS011;10390;53.566;9.980;2024-02-26T08:56:25;11.52;;;9.70;;
20462;SDS011;10390;53.566;9.980;2024-02-26T08:58:50;11.02;;;9.82;;
20462;SDS011;10390;53.566;9.980;2024-02-26T09:01:18;12.07;;;9.80;;
20462;SDS011;10390;53.566;9.980;2024-02-26T09:03:44;11.27;;;9.75;;
20462;SDS011;10390;53.566;9.980;2024-02-26T09:06:10;10.48;;;9.20;;
20462;SDS011;10390;53.566;9.980;2024-02-26T09:08:38;11.55;;;9.05;;
20462;SDS011;10390;53.566;9.980;2024-02-26T09:11:04;11.25;;;8.90;;
20462;SDS011;10390;53.566;9.980;2024-02-26T09:13:29;10.48;;;9.07;;
20462;SDS011;10390;53.566;9.980;2024-02-26T09:15:55;11.02;;;9.93;;
20462;SDS011;10390;53.566;9.980;2024-02-26T09:18:21;12.00;;;9.63;;
20462;SDS011;10390;53.566;9.980;2024-02-26T09:20:46;10.30;;;9.18;;
20462;SDS011;10390;53.566;9.980;2024-02-26T09:23:12;9.93;;;8.93;;
20462;SDS011;10390;53.566;9.980;2024-02-26T09:25:38;11.13;;;9.07;;
20462;SDS011;10390;53.566;9.980;2024-02-26T09:28:03;10.18;;;8.82;;
20462;SDS011;10390;53.566;9.980;2024-02-26T09:30:29;10.20;;;8.88;;
20462;SDS011;10390;53.566;9.980;2024-02-26T09:32:55;10.13;;;8.57;;
20462;SDS011;10390;53.566;9.980;2024-02-26T09:35:20;9.30;;;8.30;;
20462;SDS011;10390;53.566;9.980;2024-02-26T09:37:46;9.77;;;8.75;;
20462;SDS011;10390;53.566;9.980;2024-02-26T09:40:14;10.10;;;8.63;;
20462;SDS011;10390;53.566;9.980;2024-02-26T09:42:42;10.73;;;8.57;;
20462;SDS011;10390;53.566;9.980;2024-02-26T09:45:10;9.88;;;8.88;;
20462;SDS011;10390;53.566;9.980;2024-02-26T09:47:44;9.23;;;8.23;;
20462;SDS011;10390;53.566;9.980;2024-02-26T09:50:10;8.95;;;8.05;;
20462;SDS011;10390;53.566;9.980;2024-02-26T09:52:38;9.10;;;8.13;;
20462;SDS011;10390;53.566;9.980;2024-02-26T09:55:07;9.50;;;8.50;;
20462;SDS011;10390;53.566;9.980;2024-02-26T09:57:35;8.85;;;7.95;;
20462;SDS011;10390;53.566;9.980;2024-02-26T10:00:02;8.68;;;7.68;;
20462;SDS011;10390;53.566;9.980;2024-02-26T10:02:30;8.77;;;7.82;;
20462;SDS011;10390;53.566;9.980;2024-02-26T10:04:57;9.00;;;7.70;;
20462;SDS011;10390;53.566;9.980;2024-02-26T10:07:30;11.15;;;7.63;;
20462;SDS011;10390;53.566;9.980;2024-02-26T10:09:56;8.80;;;7.90;;
20462;SDS011;10390;53.566;9.980;2024-02-26T10:12:22;8.88;;;7.97;;
20462;SDS011;10390;53.566;9.980;2024-02-26T10:14:50;8.93;;;7.82;;
20462;SDS011;10390;53.566;9.980;2024-02-26T10:17:16;7.90;;;6.80;;
20462;SDS011;10390;53.566;9.980;2024-02-26T10:19:44;8.48;;;7.50;;
20462;SDS011;10390;53.566;9.980;2024-02-26T10:22:09;9.35;;;8.35;;
20462;SDS011;10390;53.566;9.980;2024-02-26T10:24:35;7.97;;;7.18;;
20462;SDS011;10390;53.566;9.980;2024-02-26T10:27:02;8.02;;;7.22;;
20462;SDS011;10390;53.566;9.980;2024-02-26T10:29:28;7.60;;;6.85;;
20462;SDS011;10390;53.566;9.980;2024-02-26T10:31:53;8.80;;;7.55;;
20462;SDS011;10390;53.566;9.980;2024-02-26T10:34:19;9.07;;;8.05;;
20462;SDS011;10390;53.566;9.980;2024-02-26T10:36:45;8.30;;;7.43;;
20462;SDS011;10390;53.566;9.980;2024-02-26T10:39:14;8.15;;;7.32;;
20462;SDS011;10390;53.566;9.980;2024-02-26T10:41:43;7.82;;;7.03;;
20462;SDS011;10390;53.566;9.980;2024-02-26T10:44:10;8.30;;;7.50;;
20462;SDS011;10390;53.566;9.980;2024-02-26T10:46:37;8.13;;;7.40;;
20462;SDS011;10390;53.566;9.980;2024-02-26T10:49:08;7.22;;;6.53;;
20462;SDS011;10390;53.566;9.980;2024-02-26T10:51:39;7.10;;;6.40;;
20462;SDS011;10390;53.566;9.980;2024-02-26T10:54:12;8.50;;;7.70;;
20462;SDS011;10390;53.566;9.980;2024-02-26T10:56:41;7.72;;;6.93;;
20462;SDS011;10390;53.566;9.980;2024-02-26T10:59:09;7.60;;;6.80;;
20462;SDS011;10390;53.566;9.980;2024-02-26T11:01:35;8.20;;;7.40;;
20462;SDS011;10390;53.566;9.980;2024-02-26T11:04:03;7.55;;;6.63;;
20462;SDS011;10390;53.566;9.980;2024-02-26T11:06:30;7.47;;;6.50;;
20462;SDS011;10390;53.566;9.980;2024-02-26T11:08:59;8.18;;;6.63;;
20462;SDS011;10390;53.566;9.980;2024-02-26T11:11:27;7.18;;;6.47;;
20462;SDS011;10390;53.566;9.980;2024-02-26T11:13:54;7.80;;;7.00;;
20462;SDS011;10390;53.566;9.980;2024-02-26T11:16:21;7.57;;;6.75;;
20462;SDS011;10390;53.566;9.980;2024-02-26T11:18:48;7.93;;;6.82;;
20462;SDS011;10390;53.566;9.980;2024-02-26T11:21:17;7.35;;;6.65;;
20462;SDS011;10390;53.566;9.980;2024-02-26T11:23:47;7.38;;;6.63;;
20462;SDS011;10390;53.566;9.980;2024-02-26T11:26:13;6.97;;;6.13;;
20462;SDS011;10390;53.566;9.980;2024-02-26T11:28:41;6.68;;;5.97;;
20462;SDS011;10390;53.566;9.980;2024-02-26T11:31:10;7.03;;;6.32;;
20462;SDS011;10390;53.566;9.980;2024-02-26T11:33:37;7.40;;;6.60;;
20462;SDS011;10390;53.566;9.980;2024-02-26T11:36:10;7.13;;;6.30;;
20462;SDS011;10390;53.566;9.980;2024-02-26T11:38:37;7.95;;;7.15;;
20462;SDS011;10390;53.566;9.980;2024-02-26T11:41:04;8.20;;;6.55;;
20462;SDS011;10390;53.566;9.980;2024-02-26T11:46:25;7.20;;;6.35;;
20462;SDS011;10390;53.566;9.980;2024-02-26T11:48:54;7.18;;;6.47;;
20462;SDS011;10390;53.566;9.980;2024-02-26T11:51:25;6.72;;;6.03;;
20462;SDS011;10390;53.566;9.980;2024-02-26T11:53:51;6.43;;;5.82;;
20462;SDS011;10390;53.566;9.980;2024-02-26T11:58:53;6.57;;;5.88;;
20462;SDS011;10390;53.566;9.980;2024-02-26T12:01:37;6.90;;;6.20;;
20462;SDS011;10390;53.566;9.980;2024-02-26T12:04:23;6.22;;;5.50;;
20462;SDS011;10390;53.566;9.980;2024-02-26T12:06:52;7.53;;;6.30;;
20462;SDS011;10390;53.566;9.980;2024-02-26T12:12:18;6.10;;;5.50;;
20462;SDS011;10390;53.566;9.980;2024-02-26T12:14:51;6.68;;;5.97;;
20462;SDS011;10390;53.566;9.980;2024-02-26T12:17:21;6.65;;;5.95;;
20462;SDS011;10390;53.566;9.980;2024-02-26T12:19:48;6.78;;;6.07;;
20462;SDS011;10390;53.566;9.980;2024-02-26T12:22:15;7.18;;;6.43;;
20462;SDS011;10390;53.566;9.980;2024-02-26T12:24:44;7.03;;;6.32;;
20462;SDS011;10390;53.566;9.980;2024-02-26T12:27:10;7.40;;;6.65;;
20462;SDS011;10390;53.566;9.980;2024-02-26T12:29:36;7.38;;;6.68;;
20462;SDS011;10390;53.566;9.980;2024-02-26T12:32:05;7.13;;;6.35;;
20462;SDS011;10390;53.566;9.980;2024-02-26T12:34:31;6.32;;;5.57;;
20462;SDS011;10390;53.566;9.980;2024-02-26T12:36:57;6.75;;;6.07;;
20462;SDS011;10390;53.566;9.980;2024-02-26T12:39:23;6.95;;;6.25;;
20462;SDS011;10390;53.566;9.980;2024-02-26T12:41:49;7.35;;;6.55;;
20462;SDS011;10390;53.566;9.980;2024-02-26T12:44:18;7.60;;;6.38;;
20462;SDS011;10390;53.566;9.980;2024-02-26T12:46:50;7.03;;;6.13;;
20462;SDS011;10390;53.566;9.980;2024-02-26T12:49:16;6.80;;;6.10;;
20462;SDS011;10390;53.566;9.980;2024-02-26T12:51:43;6.95;;;6.25;;
20462;SDS011;10390;53.566;9.980;2024-02-26T12:54:09;7.05;;;6.35;;
20462;SDS011;10390;53.566;9.980;2024-02-26T12:56:35;6.32;;;5.65;;
20462;SDS011;10390;53.566;9.980;2024-02-26T12:59:01;6.72;;;5.95;;
20462;SDS011;10390;53.566;9.980;2024-02-26T13:01:28;7.68;;;6.57;;
20462;SDS011;10390;53.566;9.980;2024-02-26T13:03:55;7.32;;;6.63;;
20462;SDS011;10390;53.566;9.980;2024-02-26T13:06:21;6.97;;;6.20;;
20462;SDS011;10390;53.566;9.980;2024-02-26T13:08:47;6.93;;;6.20;;
20462;SDS011;10390;53.566;9.980;2024-02-26T13:11:13;7.38;;;6.53;;
20462;SDS011;10390;53.566;9.980;2024-02-26T13:13:39;7.20;;;6.30;;
20462;SDS011;10390;53.566;9.980;2024-02-26T13:16:05;7.50;;;6.68;;
20462;SDS011;10390;53.566;9.980;2024-02-26T13:18:33;7.60;;;6.50;;
20462;SDS011;10390;53.566;9.980;2024-02-26T13:21:09;7.65;;;6.85;;
20462;SDS011;10390;53.566;9.980;2024-02-26T13:23:36;7.18;;;6.13;;
20462;SDS011;10390;53.566;9.980;2024-02-26T13:26:03;7.75;;;6.70;;
20462;SDS011;10390;53.566;9.980;2024-02-26T13:28:29;7.38;;;6.38;;
20462;SDS011;10390;53.566;9.980;2024-02-26T13:30:55;7.45;;;6.40;;
20462;SDS011;10390;53.566;9.980;2024-02-26T13:33:22;7.53;;;6.72;;
20462;SDS011;10390;53.566;9.980;2024-02-26T13:35:58;6.95;;;6.20;;
20462;SDS011;10390;53.566;9.980;2024-02-26T13:38:24;6.40;;;5.80;;
20462;SDS011;10390;53.566;9.980;2024-02-26T13:40:50;7.03;;;6.15;;
20462;SDS011;10390;53.566;9.980;2024-02-26T13:43:16;8.57;;;6.80;;
20462;SDS011;10390;53.566;9.980;2024-02-26T13:45:42;8.40;;;6.40;;
20462;SDS011;10390;53.566;9.980;2024-02-26T13:48:10;7.80;;;6.47;;
20462;SDS011;10390;53.566;9.980;2024-02-26T13:50:36;11.98;;;7.00;;
20462;SDS011;10390;53.566;9.980;2024-02-26T13:53:02;7.70;;;6.68;;
20462;SDS011;10390;53.566;9.980;2024-02-26T13:55:29;7.53;;;6.70;;
20462;SDS011;10390;53.566;9.980;2024-02-26T13:57:57;7.72;;;6.82;;
20462;SDS011;10390;53.566;9.980;2024-02-26T14:00:23;9.48;;;7.20;;
20462;SDS011;10390;53.566;9.980;2024-02-26T14:02:52;7.10;;;6.25;;
20462;SDS011;10390;53.566;9.980;2024-02-26T14:05:18;7.30;;;6.03;;
20462;SDS011;10390;53.566;9.980;2024-02-26T14:07:43;7.78;;;6.85;;
20462;SDS011;10390;53.566;9.980;2024-02-26T14:10:11;8.20;;;6.28;;
20462;SDS011;10390;53.566;9.980;2024-02-26T14:12:37;8.38;;;6.50;;
20462;SDS011;10390;53.566;9.980;2024-02-26T14:15:04;7.30;;;6.60;;
20462;SDS011;10390;53.566;9.980;2024-02-26T14:17:33;6.95;;;5.93;;
20462;SDS011;10390;53.566;9.980;2024-02-26T14:19:59;6.97;;;6.28;;
20462;SDS011;10390;53.566;9.980;2024-02-26T14:22:24;6.90;;;6.20;;
20462;SDS011;10390;53.566;9.980;2024-02-26T14:24:52;7.03;;;6.30;;
20462;SDS011;10390;53.566;9.980;2024-02-26T14:27:17;6.22;;;5.60;;
20462;SDS011;10390;53.566;9.980;2024-02-26T14:29:45;6.45;;;5.85;;
20462;SDS011;10390;53.566;9.980;2024-02-26T14:32:11;7.55;;;5.80;;
20462;SDS011;10390;53.566;9.980;2024-02-26T14:34:37;7.70;;;5.90;;